sensor_id;sensor_type;location;lat;lon;timestamp;pressure;altitude;pressure_sealevel;temperature;humidity
73383;BME280;61600;48.126;11.542;2023-03-01T00:01:47;96165.25;;;4.26;58.00
73383;BME280;61600;48.126;11.542;2023-03-01T00:04:13;96153.69;;;4.25;57.52
73383;BME280;61600;48.126;11.542;2023-03-01T00:06:39;96148.28;;;4.25;58.42
73383;BME280;61600;48.126;11.542;2023-03-01T00:09:05;96149.91;;;4.26;58.33
73383;BME280;61600;48.126;11.542;2023-03-01T00:11:32;96156.25;;;4.32;57.84
73383;BME280;61600;48.126;11.542;2023-03-01T00:14:01;96146.03;;;4.22;58.30
73383;BME280;61600;48.126;11.542;2023-03-01T00:16:32;96150.38;;;4.12;58.46
73383;BME280;61600;48.126;11.542;2023-03-01T00:19:02;96142.06;;;4.13;58.41
73383;BME280;61600;48.126;11.542;2023-03-01T00:21:28;96141.13;;;4.19;58.25
73383;BME280;61600;48.126;11.542;2023-03-01T00:23:54;96142.06;;;4.13;57.61
73383;BME280;61600;48.126;11.542;2023-03-01T00:26:22;96146.03;;;4.22;58.29
73383;BME280;61600;48.126;11.542;2023-03-01T00:28:48;96147.13;;;4.21;58.15
73383;BME280;61600;48.126;11.542;2023-03-01T00:31:16;96142.19;;;4.18;58.07
73383;BME280;61600;48.126;11.542;2023-03-01T00:33:43;96148.75;;;4.11;58.57
73383;BME280;61600;48.126;11.542;2023-03-01T00:36:11;96145.34;;;4.15;57.86
73383;BME280;61600;48.126;11.542;2023-03-01T00:38:38;96139.28;;;4.08;58.33
73383;BME280;61600;48.126;11.542;2023-03-01T00:41:09;96137.50;;;4.14;57.87
73383;BME280;61600;48.126;11.542;2023-03-01T00:43:35;96139.38;;;4.13;58.19
73383;BME280;61600;48.126;11.542;2023-03-01T00:46:08;96133.53;;;4.16;58.50
73383;BME280;61600;48.126;11.542;2023-03-01T00:48:34;96132.94;;;4.14;58.01
73383;BME280;61600;48.126;11.542;2023-03-01T00:51:14;96129.66;;;4.12;58.16
73383;BME280;61600;48.126;11.542;2023-03-01T00:53:41;96123.34;;;4.18;58.53
73383;BME280;61600;48.126;11.542;2023-03-01T00:56:08;96126.50;;;4.15;58.28
73383;BME280;61600;48.126;11.542;2023-03-01T00:58:35;96122.75;;;4.16;58.04
73383;BME280;61600;48.126;11.542;2023-03-01T01:01:01;96119.13;;;4.11;58.08
73383;BME280;61600;48.126;11.542;2023-03-01T01:03:32;96119.25;;;4.04;58.59
73383;BME280;61600;48.126;11.542;2023-03-01T01:05:57;96118.53;;;4.09;58.37
73383;BME280;61600;48.126;11.542;2023-03-01T01:08:23;96119.81;;;4.06;58.19
73383;BME280;61600;48.126;11.542;2023-03-01T01:10:49;96108.94;;;4.13;58.53
73383;BME280;61600;48.126;11.542;2023-03-01T01:13:15;96104.84;;;4.10;58.44
73383;BME280;61600;48.126;11.542;2023-03-01T01:15:41;96099.81;;;4.14;58.76
73383;BME280;61600;48.126;11.542;2023-03-01T01:18:07;96098.66;;;4.10;58.38
73383;BME280;61600;48.126;11.542;2023-03-01T01:20:37;96091.25;;;4.05;57.98
73383;BME280;61600;48.126;11.542;2023-03-01T01:23:05;96094.22;;;4.03;58.23
73383;BME280;61600;48.126;11.542;2023-03-01T01:25:34;96091.19;;;4.12;58.38
73383;BME280;61600;48.126;11.542;2023-03-01T01:28:00;96088.81;;;4.03;58.19
73383;BME280;61600;48.126;11.542;2023-03-01T01:30:25;96088.34;;;4.07;58.45
73383;BME280;61600;48.126;11.542;2023-03-01T01:32:54;96086.59;;;4.00;58.14
73383;BME280;61600;48.126;11.542;2023-03-01T01:35:20;96082.41;;;4.05;58.47
73383;BME280;61600;48.126;11.542;2023-03-01T01:37:46;96078.66;;;3.94;58.55
73383;BME280;61600;48.126;11.542;2023-03-01T01:40:12;96077.09;;;3.98;58.55
73383;BME280;61600;48.126;11.542;2023-03-01T01:42:38;96070.09;;;3.97;58.51
73383;BME280;61600;48.126;11.542;2023-03-01T01:45:34;96079.09;;;4.02;58.58
73383;BME280;61600;48.126;11.542;2023-03-01T01:48:04;96067.06;;;3.93;58.80
73383;BME280;61600;48.126;11.542;2023-03-01T01:50:33;96070.81;;;4.04;58.53
73383;BME280;61600;48.126;11.542;2023-03-01T01:53:12;96062.72;;;4.04;58.57
73383;BME280;61600;48.126;11.542;2023-03-01T01:55:47;96060.25;;;4.02;58.08
73383;BME280;61600;48.126;11.542;2023-03-01T01:58:18;96060.50;;;3.89;58.50
73383;BME280;61600;48.126;11.542;2023-03-01T02:00:45;96058.97;;;4.05;58.25
73383;BME280;61600;48.126;11.542;2023-03-01T02:03:15;96050.81;;;4.12;58.19
73383;BME280;61600;48.126;11.542;2023-03-01T02:05:57;96053.94;;;4.09;57.91
73383;BME280;61600;48.126;11.542;2023-03-01T02:08:27;96051.97;;;4.04;58.68
73383;BME280;61600;48.126;11.542;2023-03-01T02:10:57;96054.19;;;4.07;58.58
73383;BME280;61600;48.126;11.542;2023-03-01T02:13:25;96052.88;;;4.10;58.17
73383;BME280;61600;48.126;11.542;2023-03-01T02:15:51;96047.84;;;4.01;58.31
73383;BME280;61600;48.126;11.542;2023-03-01T02:18:20;96049.50;;;4.02;58.19
73383;BME280;61600;48.126;11.542;2023-03-01T02:23:34;96048.22;;;3.82;58.16
73383;BME280;61600;48.126;11.542;2023-03-01T02:26:25;96045.66;;;3.87;58.29
73383;BME280;61600;48.126;11.542;2023-03-01T02:28:55;96043.66;;;3.94;58.12
73383;BME280;61600;48.126;11.542;2023-03-01T02:31:21;96040.72;;;3.95;57.81
73383;BME280;61600;48.126;11.542;2023-03-01T02:34:07;96042.97;;;3.87;58.25
73383;BME280;61600;48.126;11.542;2023-03-01T02:36:37;96044.00;;;3.86;58.11
73383;BME280;61600;48.126;11.542;2023-03-01T02:39:07;96041.75;;;3.94;58.02
73383;BME280;61600;48.126;11.542;2023-03-01T02:41:44;96045.41;;;3.88;58.31
73383;BME280;61600;48.126;11.542;2023-03-01T02:44:12;96039.31;;;3.81;57.70
73383;BME280;61600;48.126;11.542;2023-03-01T02:46:50;96033.34;;;3.79;58.27
73383;BME280;61600;48.126;11.542;2023-03-01T02:49:28;96033.72;;;3.83;58.74
73383;BME280;61600;48.126;11.542;2023-03-01T02:57:13;96031.72;;;3.90;58.26
73383;BME280;61600;48.126;11.542;2023-03-01T02:59:41;96029.38;;;3.82;58.39
73383;BME280;61600;48.126;11.542;2023-03-01T03:02:22;96030.31;;;3.87;58.29
73383;BME280;61600;48.126;11.542;2023-03-01T03:05:12;96033.94;;;3.93;58.10
73383;BME280;61600;48.126;11.542;2023-03-01T03:07:40;96027.72;;;3.81;58.18
73383;BME280;61600;48.126;11.542;2023-03-01T03:10:14;96031.38;;;3.86;58.14
73383;BME280;61600;48.126;11.542;2023-03-01T03:12:40;96034.28;;;3.85;58.45
73383;BME280;61600;48.126;11.542;2023-03-01T03:15:08;96035.09;;;3.74;58.46
73383;BME280;61600;48.126;11.542;2023-03-01T03:17:38;96036.16;;;3.84;58.01
73383;BME280;61600;48.126;11.542;2023-03-01T03:20:06;96037.59;;;3.87;57.92
73383;BME280;61600;48.126;11.542;2023-03-01T03:22:37;96038.13;;;3.77;58.40
73383;BME280;61600;48.126;11.542;2023-03-01T03:25:03;96033.69;;;3.71;58.03
73383;BME280;61600;48.126;11.542;2023-03-01T03:27:29;96034.63;;;3.77;58.43
73383;BME280;61600;48.126;11.542;2023-03-01T03:29:57;96035.47;;;3.66;58.27
73383;BME280;61600;48.126;11.542;2023-03-01T03:32:23;96027.28;;;3.72;58.74
73383;BME280;61600;48.126;11.542;2023-03-01T03:34:48;96025.88;;;3.81;57.98
73383;BME280;61600;48.126;11.542;2023-03-01T03:37:14;96035.22;;;3.79;57.99
73383;BME280;61600;48.126;11.542;2023-03-01T03:40:00;96026.91;;;3.69;57.38
73383;BME280;61600;48.126;11.542;2023-03-01T03:42:26;96016.63;;;3.66;57.33
73383;BME280;61600;48.126;11.542;2023-03-01T03:44:52;96015.09;;;3.70;57.54
73383;BME280;61600;48.126;11.542;2023-03-01T03:47:17;96019.75;;;3.63;57.58
73383;BME280;61600;48.126;11.542;2023-03-01T03:49:43;96025.50;;;3.66;57.31
73383;BME280;61600;48.126;11.542;2023-03-01T03:52:12;96024.56;;;3.61;57.77
73383;BME280;61600;48.126;11.542;2023-03-01T03:54:40;96019.53;;;3.64;57.78
73383;BME280;61600;48.126;11.542;2023-03-01T03:57:06;96015.56;;;3.67;57.82
73383;BME280;61600;48.126;11.542;2023-03-01T03:59:32;96020.59;;;3.51;57.78
73383;BME280;61600;48.126;11.542;2023-03-01T04:01:58;96012.06;;;3.55;57.68
73383;BME280;61600;48.126;11.542;2023-03-01T04:04:24;96005.25;;;3.40;58.10
73383;BME280;61600;48.126;11.542;2023-03-01T04:06:51;96005.34;;;3.45;58.07
73383;BME280;61600;48.126;11.542;2023-03-01T04:09:16;96002.34;;;3.53;57.70
73383;BME280;61600;48.126;11.542;2023-03-01T04:11:42;95995.78;;;3.49;57.49
73383;BME280;61600;48.126;11.542;2023-03-01T04:14:08;95998.25;;;3.51;57.81
73383;BME280;61600;48.126;11.542;2023-03-01T04:16:35;96000.78;;;3.34;57.62
73383;BME280;61600;48.126;11.542;2023-03-01T04:19:00;96005.03;;;3.53;58.27
73383;BME280;61600;48.126;11.542;2023-03-01T04:21:26;95993.69;;;3.51;57.65
73383;BME280;61600;48.126;11.542;2023-03-01T04:23:52;95997.44;;;3.50;57.54
73383;BME280;61600;48.126;11.542;2023-03-01T04:26:19;95998.81;;;3.41;57.82
73383;BME280;61600;48.126;11.542;2023-03-01T04:28:45;96004.91;;;3.48;57.88
73383;BME280;61600;48.126;11.542;2023-03-01T04:31:14;95995.53;;;3.39;58.09
73383;BME280;61600;48.126;11.542;2023-03-01T04:33:51;96001.63;;;3.46;58.05
73383;BME280;61600;48.126;11.542;2023-03-01T04:36:19;95993.06;;;3.38;57.45
73383;BME280;61600;48.126;11.542;2023-03-01T04:38:46;95993.00;;;3.44;57.39
73383;BME280;61600;48.126;11.542;2023-03-01T04:41:14;95994.97;;;3.37;57.90
73383;BME280;61600;48.126;11.542;2023-03-01T04:43:40;95989.00;;;3.35;57.38
73383;BME280;61600;48.126;11.542;2023-03-01T04:46:08;95994.25;;;3.42;57.45
73383;BME280;61600;48.126;11.542;2023-03-01T04:48:36;95981.84;;;3.29;57.63
73383;BME280;61600;48.126;11.542;2023-03-01T04:51:03;95986.63;;;3.27;58.01
73383;BME280;61600;48.126;11.542;2023-03-01T04:53:29;95990.16;;;3.39;57.71
73383;BME280;61600;48.126;11.542;2023-03-01T04:55:56;95986.66;;;3.39;57.91
73383;BME280;61600;48.126;11.542;2023-03-01T04:58:23;95988.41;;;3.33;57.86
73383;BME280;61600;48.126;11.542;2023-03-01T05:00:49;95987.91;;;3.25;58.04
73383;BME280;61600;48.126;11.542;2023-03-01T05:03:15;95986.53;;;3.22;58.06
73383;BME280;61600;48.126;11.542;2023-03-01T05:05:45;95978.81;;;3.26;58.39
73383;BME280;61600;48.126;11.542;2023-03-01T05:08:11;95981.00;;;3.17;58.50
73383;BME280;61600;48.126;11.542;2023-03-01T05:10:49;95985.09;;;3.08;58.02
73383;BME280;61600;48.126;11.542;2023-03-01T05:13:15;95986.38;;;3.17;58.59
73383;BME280;61600;48.126;11.542;2023-03-01T05:15:55;95984.75;;;3.16;58.72
73383;BME280;61600;48.126;11.542;2023-03-01T05:18:23;95988.34;;;3.10;58.70
73383;BME280;61600;48.126;11.542;2023-03-01T05:20:55;95981.47;;;3.14;58.83
73383;BME280;61600;48.126;11.542;2023-03-01T05:23:24;95983.91;;;3.04;58.54
73383;BME280;61600;48.126;11.542;2023-03-01T05:25:50;95977.81;;;2.97;58.65
73383;BME280;61600;48.126;11.542;2023-03-01T05:28:18;95973.84;;;2.99;59.01
73383;BME280;61600;48.126;11.542;2023-03-01T05:30:45;95972.31;;;2.92;58.84
73383;BME280;61600;48.126;11.542;2023-03-01T05:33:11;95977.50;;;3.05;58.84
73383;BME280;61600;48.126;11.542;2023-03-01T05:35:41;95976.16;;;2.96;59.11
73383;BME280;61600;48.126;11.542;2023-03-01T05:38:08;95977.69;;;3.03;58.71
73383;BME280;61600;48.126;11.542;2023-03-01T05:40:34;95976.88;;;3.03;58.66
73383;BME280;61600;48.126;11.542;2023-03-01T05:43:00;95977.69;;;3.03;58.73
73383;BME280;61600;48.126;11.542;2023-03-01T05:45:27;95977.09;;;2.90;59.00
73383;BME280;61600;48.126;11.542;2023-03-01T05:47:54;95970.56;;;2.97;58.88
73383;BME280;61600;48.126;11.542;2023-03-01T05:50:21;95955.75;;;2.95;58.54
73383;BME280;61600;48.126;11.542;2023-03-01T05:52:49;95968.34;;;2.94;58.51
73383;BME280;61600;48.126;11.542;2023-03-01T05:55:17;95973.78;;;2.76;58.71
73383;BME280;61600;48.126;11.542;2023-03-01T05:57:44;95967.63;;;2.87;58.20
73383;BME280;61600;48.126;11.542;2023-03-01T06:00:11;95965.41;;;2.96;58.74
73383;BME280;61600;48.126;11.542;2023-03-01T06:02:39;95971.41;;;2.98;58.73
73383;BME280;61600;48.126;11.542;2023-03-01T06:05:08;95968.94;;;2.96;58.47
73383;BME280;61600;48.126;11.542;2023-03-01T06:07:34;95972.44;;;2.97;58.77
73383;BME280;61600;48.126;11.542;2023-03-01T06:10:01;95982.00;;;2.93;58.48
73383;BME280;61600;48.126;11.542;2023-03-01T06:12:31;95983.66;;;2.94;57.93
73383;BME280;61600;48.126;11.542;2023-03-01T06:15:00;95985.03;;;2.96;58.17
73383;BME280;61600;48.126;11.542;2023-03-01T06:17:28;95984.16;;;3.03;58.23
73383;BME280;61600;48.126;11.542;2023-03-01T06:19:55;95985.53;;;2.64;59.06
73383;BME280;61600;48.126;11.542;2023-03-01T06:22:21;95985.19;;;2.72;58.93
73383;BME280;61600;48.126;11.542;2023-03-01T06:24:47;95982.19;;;2.80;59.09
73383;BME280;61600;48.126;11.542;2023-03-01T06:27:13;95989.59;;;2.96;59.18
73383;BME280;61600;48.126;11.542;2023-03-01T06:29:38;95984.31;;;2.89;59.04
73383;BME280;61600;48.126;11.542;2023-03-01T06:32:04;95984.31;;;2.89;58.98
73383;BME280;61600;48.126;11.542;2023-03-01T06:34:31;95993.75;;;2.80;58.62
73383;BME280;61600;48.126;11.542;2023-03-01T06:36:57;95983.53;;;3.00;58.15
73383;BME280;61600;48.126;11.542;2023-03-01T06:39:23;95992.44;;;3.01;58.10
73383;BME280;61600;48.126;11.542;2023-03-01T06:41:49;95989.28;;;3.04;58.37
73383;BME280;61600;48.126;11.542;2023-03-01T06:44:15;95988.22;;;3.05;58.13
73383;BME280;61600;48.126;11.542;2023-03-01T06:46:41;95988.22;;;3.05;58.03
73383;BME280;61600;48.126;11.542;2023-03-01T06:49:06;95986.94;;;3.08;57.94
73383;BME280;61600;48.126;11.542;2023-03-01T06:51:37;95990.72;;;3.18;58.10
73383;BME280;61600;48.126;11.542;2023-03-01T06:54:06;95983.22;;;3.20;57.79
73383;BME280;61600;48.126;11.542;2023-03-01T06:56:32;95989.53;;;3.14;57.63
73383;BME280;61600;48.126;11.542;2023-03-01T06:58:58;95980.22;;;3.28;57.14
73383;BME280;61600;48.126;11.542;2023-03-01T07:01:24;95984.88;;;3.21;58.04
73383;BME280;61600;48.126;11.542;2023-03-01T07:03:50;95983.13;;;3.38;57.44
73383;BME280;61600;48.126;11.542;2023-03-01T07:06:16;95985.47;;;3.23;57.50
73383;BME280;61600;48.126;11.542;2023-03-01T07:08:43;95989.59;;;3.37;57.42
73383;BME280;61600;48.126;11.542;2023-03-01T07:11:08;95987.69;;;3.38;56.98
73383;BME280;61600;48.126;11.542;2023-03-01T07:13:34;95996.00;;;3.36;56.82
73383;BME280;61600;48.126;11.542;2023-03-01T07:16:00;95990.38;;;3.38;57.33
73383;BME280;61600;48.126;11.542;2023-03-01T07:18:29;95979.38;;;3.28;57.24
73383;BME280;61600;48.126;11.542;2023-03-01T07:20:55;95977.66;;;3.33;57.22
73383;BME280;61600;48.126;11.542;2023-03-01T07:23:21;95977.09;;;3.55;57.17
73383;BME280;61600;48.126;11.542;2023-03-01T07:25:56;95977.56;;;3.51;56.59
73383;BME280;61600;48.126;11.542;2023-03-01T07:28:23;95977.56;;;3.51;56.14
73383;BME280;61600;48.126;11.542;2023-03-01T07:30:51;95972.63;;;3.48;56.35
73383;BME280;61600;48.126;11.542;2023-03-01T07:33:17;95970.88;;;3.42;57.38
73383;BME280;61600;48.126;11.542;2023-03-01T07:35:43;95968.78;;;3.44;56.71
73383;BME280;61600;48.126;11.542;2023-03-01T07:38:09;95973.34;;;3.56;57.46
73383;BME280;61600;48.126;11.542;2023-03-01T07:40:35;95972.19;;;3.51;57.09
73383;BME280;61600;48.126;11.542;2023-03-01T07:43:02;95964.00;;;3.58;56.82
73383;BME280;61600;48.126;11.542;2023-03-01T07:45:29;95960.84;;;3.61;56.47
73383;BME280;61600;48.126;11.542;2023-03-01T07:48:15;95964.34;;;3.62;56.16
73383;BME280;61600;48.126;11.542;2023-03-01T07:50:41;95963.75;;;3.60;57.14
73383;BME280;61600;48.126;11.542;2023-03-01T07:53:07;95952.88;;;3.78;56.63
73383;BME280;61600;48.126;11.542;2023-03-01T07:55:33;95958.72;;;3.63;56.42
73383;BME280;61600;48.126;11.542;2023-03-01T07:57:58;95959.78;;;3.74;55.91
73383;BME280;61600;48.126;11.542;2023-03-01T08:00:24;95957.34;;;3.61;56.24
73383;BME280;61600;48.126;11.542;2023-03-01T08:02:50;95953.91;;;3.77;55.98
73383;BME280;61600;48.126;11.542;2023-03-01T08:05:16;95961.91;;;3.72;56.43
73383;BME280;61600;48.126;11.542;2023-03-01T08:07:42;95958.97;;;3.62;55.71
73383;BME280;61600;48.126;11.542;2023-03-01T08:10:08;95961.41;;;3.86;56.16
73383;BME280;61600;48.126;11.542;2023-03-01T08:12:35;95953.56;;;3.85;55.97
73383;BME280;61600;48.126;11.542;2023-03-01T08:15:01;95954.75;;;3.89;55.42
73383;BME280;61600;48.126;11.542;2023-03-01T08:17:27;95952.19;;;3.82;55.39
73383;BME280;61600;48.126;11.542;2023-03-01T08:19:52;95956.72;;;3.93;55.48
73383;BME280;61600;48.126;11.542;2023-03-01T08:22:18;95948.53;;;4.00;54.36
73383;BME280;61600;48.126;11.542;2023-03-01T08:24:44;95953.09;;;4.11;54.94
73383;BME280;61600;48.126;11.542;2023-03-01T08:27:10;95947.84;;;4.05;54.83
73383;BME280;61600;48.126;11.542;2023-03-01T08:29:37;95955.66;;;4.06;54.65
73383;BME280;61600;48.126;11.542;2023-03-01T08:32:03;95953.09;;;4.11;55.03
73383;BME280;61600;48.126;11.542;2023-03-01T08:34:29;95950.13;;;4.13;54.63
73383;BME280;61600;48.126;11.542;2023-03-01T08:36:56;95955.50;;;4.24;54.63
73383;BME280;61600;48.126;11.542;2023-03-01T08:39:22;95946.47;;;4.30;54.15
73383;BME280;61600;48.126;11.542;2023-03-01T08:41:48;95939.91;;;4.26;54.32
73383;BME280;61600;48.126;11.542;2023-03-01T08:44:15;95937.22;;;4.26;54.35
73383;BME280;61600;48.126;11.542;2023-03-01T08:46:43;95934.47;;;4.49;53.93
73383;BME280;61600;48.126;11.542;2023-03-01T08:49:14;95926.25;;;4.56;53.99
73383;BME280;61600;48.126;11.542;2023-03-01T08:51:41;95929.47;;;4.41;53.88
73383;BME280;61600;48.126;11.542;2023-03-01T08:54:11;95925.91;;;4.52;53.74
73383;BME280;61600;48.126;11.542;2023-03-01T08:56:37;95918.13;;;4.68;53.60
73383;BME280;61600;48.126;11.542;2023-03-01T08:59:03;95925.97;;;4.86;53.54
73383;BME280;61600;48.126;11.542;2023-03-01T09:01:29;95921.06;;;4.83;53.31
73383;BME280;61600;48.126;11.542;2023-03-01T09:03:55;95922.72;;;4.84;52.96
73383;BME280;61600;48.126;11.542;2023-03-01T09:06:21;95925.97;;;4.86;52.92
73383;BME280;61600;48.126;11.542;2023-03-01T09:08:52;95919.16;;;4.95;53.19
73383;BME280;61600;48.126;11.542;2023-03-01T09:11:20;95922.31;;;4.92;53.22
73383;BME280;61600;48.126;11.542;2023-03-01T09:13:47;95919.53;;;5.03;53.12
73383;BME280;61600;48.126;11.542;2023-03-01T09:16:18;95920.63;;;5.02;53.15
73383;BME280;61600;48.126;11.542;2023-03-01T09:18:48;95923.00;;;5.16;52.45
73383;BME280;61600;48.126;11.542;2023-03-01T09:21:16;95914.81;;;4.94;53.09
73383;BME280;61600;48.126;11.542;2023-03-01T09:23:44;95920.78;;;5.13;52.07
73383;BME280;61600;48.126;11.542;2023-03-01T09:26:15;95913.03;;;5.16;52.97
73383;BME280;61600;48.126;11.542;2023-03-01T09:28:42;95917.44;;;5.22;52.48
73383;BME280;61600;48.126;11.542;2023-03-01T09:31:10;95906.47;;;5.29;52.62
73383;BME280;61600;48.126;11.542;2023-03-01T09:33:39;95913.91;;;5.22;52.34
73383;BME280;61600;48.126;11.542;2023-03-01T09:36:07;95906.81;;;5.16;52.55
73383;BME280;61600;48.126;11.542;2023-03-01T09:38:34;95912.47;;;5.31;52.22
73383;BME280;61600;48.126;11.542;2023-03-01T09:41:00;95903.44;;;5.42;51.88
73383;BME280;61600;48.126;11.542;2023-03-01T09:43:48;95907.53;;;5.11;52.08
73383;BME280;61600;48.126;11.542;2023-03-01T09:46:22;95912.13;;;5.27;52.08
73383;BME280;61600;48.126;11.542;2023-03-01T09:48:49;95907.56;;;5.44;51.68
73383;BME280;61600;48.126;11.542;2023-03-01T09:51:36;95906.72;;;5.44;51.95
73383;BME280;61600;48.126;11.542;2023-03-01T09:54:03;95900.50;;;5.43;51.46
73383;BME280;61600;48.126;11.542;2023-03-01T09:56:37;95900.38;;;5.33;52.21
73383;BME280;61600;48.126;11.542;2023-03-01T09:59:19;95901.81;;;5.58;52.27
73383;BME280;61600;48.126;11.542;2023-03-01T10:02:16;95894.19;;;5.71;51.93
73383;BME280;61600;48.126;11.542;2023-03-01T10:04:51;95893.81;;;5.84;50.92
73383;BME280;61600;48.126;11.542;2023-03-01T10:07:26;95903.72;;;5.79;51.28
73383;BME280;61600;48.126;11.542;2023-03-01T10:09:54;95893.47;;;5.59;51.29
73383;BME280;61600;48.126;11.542;2023-03-01T10:12:26;95890.66;;;5.71;52.01
73383;BME280;61600;48.126;11.542;2023-03-01T10:15:05;95892.84;;;5.52;52.23
73383;BME280;61600;48.126;11.542;2023-03-01T10:20:33;95889.06;;;5.91;51.36
73383;BME280;61600;48.126;11.542;2023-03-01T10:23:02;95886.88;;;5.88;50.51
73383;BME280;61600;48.126;11.542;2023-03-01T10:30:52;95882.94;;;5.96;50.99
73383;BME280;61600;48.126;11.542;2023-03-01T10:33:31;95878.13;;;5.98;50.61
73383;BME280;61600;48.126;11.542;2023-03-01T10:35:58;95875.19;;;6.26;49.83
73383;BME280;61600;48.126;11.542;2023-03-01T10:38:24;95880.16;;;6.34;49.83
73383;BME280;61600;48.126;11.542;2023-03-01T10:43:28;95882.09;;;6.12;49.98
73383;BME280;61600;48.126;11.542;2023-03-01T10:45:57;95876.19;;;6.15;49.90
73383;BME280;61600;48.126;11.542;2023-03-01T10:48:25;95880.88;;;6.25;49.59
73383;BME280;61600;48.126;11.542;2023-03-01T10:53:37;95862.06;;;6.57;49.06
73383;BME280;61600;48.126;11.542;2023-03-01T10:56:09;95859.44;;;6.67;48.78
73383;BME280;61600;48.126;11.542;2023-03-01T10:58:38;95847.91;;;6.49;49.53
73383;BME280;61600;48.126;11.542;2023-03-01T11:03:41;95842.72;;;6.70;48.97
73383;BME280;61600;48.126;11.542;2023-03-01T11:08:45;95827.91;;;6.77;48.36
73383;BME280;61600;48.126;11.542;2023-03-01T11:16:41;95817.09;;;7.09;48.17
73383;BME280;61600;48.126;11.542;2023-03-01T11:21:44;95800.53;;;7.42;47.46
73383;BME280;61600;48.126;11.542;2023-03-01T11:24:14;95793.13;;;7.70;46.68
73383;BME280;61600;48.126;11.542;2023-03-01T11:26:45;95789.13;;;7.82;46.31
73383;BME280;61600;48.126;11.542;2023-03-01T11:29:27;95789.69;;;7.84;46.17
73383;BME280;61600;48.126;11.542;2023-03-01T11:31:59;95785.34;;;7.83;45.81
73383;BME280;61600;48.126;11.542;2023-03-01T11:35:00;95775.66;;;7.97;46.50
73383;BME280;61600;48.126;11.542;2023-03-01T11:40:23;95763.88;;;8.39;45.31
73383;BME280;61600;48.126;11.542;2023-03-01T11:43:23;95761.97;;;8.29;45.25
73383;BME280;61600;48.126;11.542;2023-03-01T11:46:02;95760.38;;;8.74;45.17
73383;BME280;61600;48.126;11.542;2023-03-01T11:48:40;95756.31;;;8.76;44.36
73383;BME280;61600;48.126;11.542;2023-03-01T11:51:24;95756.59;;;8.95;44.19
73383;BME280;61600;48.126;11.542;2023-03-01T11:54:09;95752.53;;;8.82;44.52
73383;BME280;61600;48.126;11.542;2023-03-01T11:56:41;95747.91;;;9.03;44.10
73383;BME280;61600;48.126;11.542;2023-03-01T11:59:26;95751.97;;;8.85;43.96
73383;BME280;61600;48.126;11.542;2023-03-01T12:08:01;95740.84;;;8.92;44.74
73383;BME280;61600;48.126;11.542;2023-03-01T12:10:48;95738.69;;;9.04;44.32
73383;BME280;61600;48.126;11.542;2023-03-01T12:13:42;95735.41;;;9.17;44.14
73383;BME280;61600;48.126;11.542;2023-03-01T12:27:50;95705.91;;;9.75;42.77
73383;BME280;61600;48.126;11.542;2023-03-01T12:36:27;95708.66;;;9.65;43.25
73383;BME280;61600;48.126;11.542;2023-03-01T12:49:48;95693.31;;;10.43;43.37
73383;BME280;61600;48.126;11.542;2023-03-01T12:52:35;95692.06;;;10.64;42.23
73383;BME280;61600;48.126;11.542;2023-03-01T13:00:53;95681.81;;;11.14;41.15
73383;BME280;61600;48.126;11.542;2023-03-01T13:03:36;95685.25;;;10.67;40.77
73383;BME280;61600;48.126;11.542;2023-03-01T13:06:21;95689.22;;;10.79;41.09
73383;BME280;61600;48.126;11.542;2023-03-01T13:11:44;95675.41;;;11.05;41.03
73383;BME280;61600;48.126;11.542;2023-03-01T13:16:51;95669.03;;;11.38;40.26
73383;BME280;61600;48.126;11.542;2023-03-01T13:19:20;95681.47;;;11.20;40.59
73383;BME280;61600;48.126;11.542;2023-03-01T13:21:48;95680.28;;;11.55;40.40
73383;BME280;61600;48.126;11.542;2023-03-01T13:27:20;95687.31;;;11.85;39.97
73383;BME280;61600;48.126;11.542;2023-03-01T13:29:59;95680.00;;;11.57;40.23
73383;BME280;61600;48.126;11.542;2023-03-01T13:32:33;95689.84;;;11.52;40.23
73383;BME280;61600;48.126;11.542;2023-03-01T13:35:08;95678.25;;;11.66;40.45
73383;BME280;61600;48.126;11.542;2023-03-01T13:37:48;95675.38;;;11.57;40.21
73383;BME280;61600;48.126;11.542;2023-03-01T13:42:48;95658.00;;;11.95;39.70
73383;BME280;61600;48.126;11.542;2023-03-01T13:47:52;95660.72;;;12.14;39.58
73383;BME280;61600;48.126;11.542;2023-03-01T13:50:20;95663.91;;;12.21;39.12
73383;BME280;61600;48.126;11.542;2023-03-01T13:52:58;95659.16;;;12.64;38.31
73383;BME280;61600;48.126;11.542;2023-03-01T13:55:45;95668.19;;;12.27;39.11
73383;BME280;61600;48.126;11.542;2023-03-01T14:00:45;95651.09;;;12.40;38.94
73383;BME280;61600;48.126;11.542;2023-03-01T14:03:16;95651.59;;;12.42;38.89
73383;BME280;61600;48.126;11.542;2023-03-01T14:05:57;95653.22;;;12.43;38.99
73383;BME280;61600;48.126;11.542;2023-03-01T14:08:26;95647.25;;;12.74;38.55
73383;BME280;61600;48.126;11.542;2023-03-01T14:17:03;95647.25;;;12.74;37.89
73383;BME280;61600;48.126;11.542;2023-03-01T14:19:33;95638.50;;;12.77;38.70
73383;BME280;61600;48.126;11.542;2023-03-01T14:22:17;95644.03;;;12.53;38.98
73383;BME280;61600;48.126;11.542;2023-03-01T14:24:48;95640.25;;;12.68;38.51
73383;BME280;61600;48.126;11.542;2023-03-01T14:27:14;95637.25;;;12.69;38.55
73383;BME280;61600;48.126;11.542;2023-03-01T14:29:40;95618.19;;;12.96;37.97
73383;BME280;61600;48.126;11.542;2023-03-01T14:32:20;95615.25;;;12.79;38.23
73383;BME280;61600;48.126;11.542;2023-03-01T14:34:48;95610.00;;;12.83;38.48
73383;BME280;61600;48.126;11.542;2023-03-01T14:39:44;95598.59;;;13.08;37.98
73383;BME280;61600;48.126;11.542;2023-03-01T14:42:12;95597.97;;;12.84;39.09
73383;BME280;61600;48.126;11.542;2023-03-01T14:44:41;95602.31;;;12.98;38.83
73383;BME280;61600;48.126;11.542;2023-03-01T14:47:15;95597.13;;;13.29;38.34
73383;BME280;61600;48.126;11.542;2023-03-01T14:49:43;95604.59;;;13.24;37.88
73383;BME280;61600;48.126;11.542;2023-03-01T14:52:21;95602.38;;;13.12;37.95
73383;BME280;61600;48.126;11.542;2023-03-01T14:54:50;95606.63;;;13.18;38.29
73383;BME280;61600;48.126;11.542;2023-03-01T14:57:21;95611.72;;;13.06;38.51